createdAt,value
2022-08-20T00:03:35.372Z,0
2022-08-20T00:08:43.685Z,0
2022-08-20T00:13:53.433Z,0
2022-08-20T00:19:03.200Z,0
2022-08-20T00:24:11.689Z,0
2022-08-20T00:29:22.676Z,0
2022-08-20T00:34:31.847Z,0
2022-08-20T00:39:41.708Z,0
2022-08-20T00:44:51.993Z,0
2022-08-20T00:50:01.760Z,0
2022-08-20T00:55:11.554Z,0
2022-08-20T01:00:22.473Z,0
2022-08-20T01:11:41.667Z,0
2022-08-20T01:16:52.638Z,0
2022-08-20T01:22:03.706Z,0
2022-08-20T01:27:13.440Z,0
2022-08-20T01:32:21.922Z,0
2022-08-20T01:37:31.965Z,0
2022-08-20T01:42:59.988Z,0
2022-08-20T01:47:55.232Z,0
2022-08-20T01:53:02.876Z,0
2022-08-20T01:58:13.270Z,0
2022-08-20T02:03:22.390Z,0
2022-08-20T02:08:31.014Z,0
2022-08-20T02:13:39.344Z,0
2022-08-20T02:18:49.751Z,0
2022-08-20T02:23:58.877Z,0
2022-08-20T02:29:08.011Z,0
2022-08-20T02:34:23.174Z,0
2022-08-20T02:39:26.243Z,0
2022-08-20T02:44:35.996Z,0
2022-08-20T02:49:46.421Z,0
2022-08-20T02:54:55.513Z,0
2022-08-20T03:00:05.305Z,0
2022-08-20T03:05:13.773Z,0
2022-08-20T03:10:23.409Z,0
2022-08-20T03:15:31.355Z,0
2022-08-20T03:20:39.851Z,0
2022-08-20T03:25:48.956Z,0
2022-08-20T03:31:00.024Z,0
2022-08-20T03:36:09.749Z,0
2022-08-20T03:41:18.236Z,0
2022-08-20T03:46:26.727Z,0
2022-08-20T03:51:58.796Z,0
2022-08-20T03:56:44.314Z,0
2022-08-20T04:01:53.015Z,1
2022-08-20T04:07:03.200Z,3
2022-08-20T04:12:12.331Z,5
2022-08-20T04:17:22.681Z,9
2022-08-20T04:22:29.915Z,13
2022-08-20T04:27:40.317Z,18
2022-08-20T04:32:49.707Z,24
2022-08-20T04:37:57.965Z,33
2022-08-20T04:43:06.498Z,42
2022-08-20T04:48:16.796Z,56
2022-08-20T04:53:26.145Z,54
2022-08-20T04:58:33.855Z,54
2022-08-20T05:03:42.920Z,63
2022-08-20T05:08:52.083Z,62
2022-08-20T05:14:01.165Z,96
2022-08-20T05:19:10.296Z,120
2022-08-20T05:24:19.447Z,202
2022-08-20T05:29:29.816Z,259
2022-08-20T05:34:38.301Z,288
2022-08-20T05:39:46.962Z,298
2022-08-20T05:44:55.893Z,246
2022-08-20T05:50:05.691Z,275
2022-08-20T05:55:14.821Z,235
2022-08-20T06:00:23.890Z,219
2022-08-20T06:05:31.732Z,284
2022-08-20T06:10:43.463Z,364
2022-08-20T06:15:51.927Z,159
2022-08-20T06:21:01.043Z,115
2022-08-20T06:26:10.339Z,68
2022-08-20T06:31:19.272Z,103
2022-08-20T06:36:27.731Z,216
2022-08-20T06:41:37.529Z,358
2022-08-20T06:46:45.989Z,416
2022-08-20T06:51:56.359Z,415
2022-08-20T06:57:05.538Z,324
2022-08-20T07:02:15.270Z,325
2022-08-20T07:07:24.925Z,238
2022-08-20T07:12:35.429Z,244
2022-08-20T07:17:44.518Z,421
2022-08-20T07:22:54.290Z,500
2022-08-20T07:28:02.154Z,633
2022-08-20T07:33:11.444Z,907
2022-08-20T07:38:21.001Z,926
2022-08-20T07:43:30.165Z,804
2022-08-20T07:48:39.238Z,887
2022-08-20T07:53:47.764Z,683
2022-08-20T07:58:57.528Z,516
2022-08-20T08:04:06.606Z,471
2022-08-20T08:09:16.425Z,826
2022-08-20T08:14:26.147Z,929
2022-08-20T08:19:33.967Z,1020
2022-08-20T08:24:57.892Z,1582
2022-08-20T08:29:52.793Z,1599
2022-08-20T08:35:03.207Z,914
2022-08-20T08:40:12.712Z,854
2022-08-20T08:45:22.106Z,612
2022-08-20T08:50:55.015Z,1181
2022-08-20T08:55:41.606Z,1327
2022-08-20T09:01:09.788Z,1564
2022-08-20T09:06:01.129Z,1803
2022-08-20T09:11:09.647Z,2048
2022-08-20T09:16:19.358Z,1248
2022-08-20T09:21:28.490Z,2050
2022-08-20T09:26:39.428Z,1886
2022-08-20T09:31:46.634Z,1349
2022-08-20T09:36:54.581Z,1831
2022-08-20T09:42:03.682Z,1016
2022-08-20T09:47:12.798Z,1434
2022-08-20T09:52:21.289Z,1446
2022-08-20T09:57:30.394Z,2321
2022-08-20T10:02:38.874Z,1865
2022-08-20T10:07:48.009Z,1729
2022-08-20T10:12:57.763Z,1944
2022-08-20T10:18:06.235Z,1629
2022-08-20T10:23:16.667Z,1447
2022-08-20T10:28:25.753Z,1247
2022-08-20T10:33:34.253Z,1181
2022-08-20T10:38:43.359Z,2193
2022-08-20T10:43:51.835Z,1953
2022-08-20T10:49:00.970Z,2258
2022-08-20T10:54:12.937Z,1786
2022-08-20T10:59:25.832Z,1088
2022-08-20T11:04:41.992Z,810
2022-08-20T11:09:57.510Z,723
2022-08-20T11:15:56.957Z,1483
2022-08-20T11:16:19.754Z,1483
2022-08-20T11:21:31.035Z,1723
2022-08-20T11:21:51.018Z,1723
2022-08-20T11:26:51.035Z,1559
2022-08-20T11:27:11.017Z,1559
2022-08-20T11:32:10.391Z,1421
2022-08-20T11:32:30.369Z,1421
2022-08-20T11:37:26.858Z,1775
2022-08-20T11:37:46.842Z,1775
2022-08-20T11:43:17.394Z,1737
2022-08-20T11:45:09.693Z,1737
2022-08-20T11:50:24.158Z,1158
2022-08-20T11:51:34.679Z,1158
2022-08-20T11:55:53.107Z,1238
2022-08-20T11:59:06.544Z,1238
2022-08-20T12:04:25.304Z,1022
2022-08-20T12:10:43.353Z,1298
2022-08-20T12:11:32.924Z,1298
2022-08-20T12:16:42.401Z,1753
2022-08-20T12:24:39.830Z,1759
2022-08-20T12:27:23.634Z,1759
2022-08-20T12:32:19.356Z,1559
2022-08-20T12:39:27.740Z,1392
2022-08-20T12:40:17.778Z,1392
2022-08-20T12:44:42.625Z,1376
2022-08-20T12:49:58.798Z,1296
2022-08-20T12:57:16.413Z,1466
2022-08-20T13:05:47.259Z,1270
2022-08-20T13:11:02.807Z,1341
2022-08-20T13:15:30.224Z,902
2022-08-20T13:20:21.380Z,1435
2022-08-20T13:25:31.685Z,1569
2022-08-20T13:30:40.790Z,1684
2022-08-20T13:35:53.110Z,1966
2022-08-20T13:41:03.532Z,1792
2022-08-20T13:46:14.568Z,1814
2022-08-20T13:51:30.830Z,840
2022-08-20T13:56:36.639Z,994
2022-08-20T14:01:48.508Z,764
2022-08-20T14:07:00.634Z,699
2022-08-20T14:12:09.113Z,1185
2022-08-20T14:17:20.158Z,1497
2022-08-20T14:22:32.430Z,1838
2022-08-20T14:27:42.260Z,1011
2022-08-20T14:32:52.016Z,1057
2022-08-20T14:38:05.295Z,1262
2022-08-20T14:43:10.265Z,1202
2022-08-20T14:48:19.993Z,1145
2022-08-20T14:53:31.033Z,1179
2022-08-20T14:58:40.857Z,1290
2022-08-20T15:03:55.679Z,1282
2022-08-20T15:09:06.749Z,1229
2022-08-20T15:14:19.660Z,984
2022-08-20T15:19:24.972Z,1303
2022-08-20T15:24:34.721Z,1319
2022-08-20T15:29:43.834Z,956
2022-08-20T15:34:55.452Z,676
2022-08-20T15:40:02.007Z,796
2022-08-20T15:45:22.468Z,714
2022-08-20T15:50:45.919Z,758
2022-08-20T15:55:56.312Z,1175
2022-08-20T16:01:26.133Z,1001
2022-08-20T16:06:15.200Z,648
2022-08-20T16:11:24.951Z,599
2022-08-20T16:16:37.278Z,491
2022-08-20T16:21:46.407Z,529
2022-08-20T16:27:13.465Z,586
2022-08-20T16:32:22.548Z,490
2022-08-20T16:37:31.678Z,408
2022-08-20T16:42:40.157Z,377
2022-08-20T16:47:48.628Z,350
2022-08-20T16:52:59.103Z,372
2022-08-20T16:58:06.876Z,400
2022-08-20T17:03:15.993Z,348
2022-08-20T17:08:28.848Z,299
2022-08-20T17:13:33.593Z,373
2022-08-20T17:18:42.331Z,303
2022-08-20T17:23:57.151Z,268
2022-08-20T17:29:11.448Z,226
2022-08-20T17:34:26.937Z,202
2022-08-20T17:39:41.913Z,184
2022-08-20T17:44:57.977Z,163
2022-08-20T17:50:14.131Z,158
2022-08-20T17:55:29.654Z,133
2022-08-20T18:01:11.375Z,111
2022-08-20T18:06:03.296Z,94
2022-08-20T18:10:29.412Z,79
2022-08-20T18:15:25.086Z,66
2022-08-20T18:20:27.705Z,57
2022-08-20T18:25:37.500Z,49
2022-08-20T18:30:48.475Z,38
2022-08-20T18:35:58.244Z,32
2022-08-20T18:41:06.715Z,26
2022-08-20T18:46:16.486Z,22
2022-08-20T18:51:26.235Z,15
2022-08-20T18:56:36.651Z,9
2022-08-20T19:01:47.333Z,5
2022-08-20T19:06:58.103Z,2
2022-08-20T19:12:03.997Z,0
2022-08-20T19:17:13.119Z,0
2022-08-20T19:22:21.604Z,0
2022-08-20T19:27:31.351Z,0
2022-08-20T19:32:51.528Z,0
2022-08-20T19:37:51.975Z,0
2022-08-20T19:43:00.318Z,0
2022-08-20T19:48:10.400Z,0
2022-08-20T19:53:31.126Z,0
2022-08-20T19:58:27.369Z,0
2022-08-20T20:03:36.481Z,0
2022-08-20T20:08:44.966Z,0
2022-08-20T20:13:54.081Z,0
2022-08-20T20:19:28.524Z,0
2022-08-20T20:24:11.741Z,0
2022-08-20T20:29:21.452Z,0
2022-08-20T20:34:30.575Z,0
2022-08-20T20:39:39.886Z,0
2022-08-20T20:44:48.811Z,0
2022-08-20T20:49:59.191Z,0
2022-08-20T20:55:08.335Z,0
2022-08-20T21:00:17.449Z,0
2022-08-20T21:05:27.207Z,0
2022-08-20T21:10:35.682Z,0
2022-08-20T21:15:44.788Z,0
2022-08-20T21:20:54.576Z,0
2022-08-20T21:26:04.320Z,0
2022-08-20T21:31:14.732Z,0
2022-08-20T21:36:23.844Z,0
2022-08-20T21:41:38.411Z,0
2022-08-20T21:47:09.595Z,0
2022-08-20T21:52:19.348Z,0
2022-08-20T21:57:30.421Z,0
2022-08-20T22:02:43.995Z,0
2022-08-20T22:07:56.313Z,0
2022-08-20T22:13:13.334Z,0
2022-08-20T22:18:28.286Z,0
2022-08-20T22:23:44.381Z,0
2022-08-20T22:28:59.259Z,0
2022-08-20T22:34:15.622Z,0
2022-08-20T22:39:31.580Z,0
2022-08-20T22:45:10.773Z,0
2022-08-20T22:50:03.283Z,0
2022-08-20T22:55:20.059Z,0
2022-08-20T23:00:34.944Z,0
2022-08-20T23:05:50.491Z,0
2022-08-20T23:11:06.615Z,0
2022-08-20T23:16:20.851Z,0
2022-08-20T23:21:37.048Z,0
2022-08-20T23:26:52.485Z,0
2022-08-20T23:32:08.057Z,0
2022-08-20T23:36:34.248Z,0
2022-08-20T23:41:23.357Z,0
2022-08-20T23:46:32.476Z,0
2022-08-20T23:51:42.241Z,0
2022-08-20T23:56:50.716Z,0
